Terminal Aerodrome Forecast
Issued by NWS

Home | Current Version | Previous Version | Text Only | Print | Product List | Glossary On
Versions: 1 2 3 4 5 6 7 8 9 10 11 12 13 14 15
089
FTUS44 KLIX 170520
TAFGPT
TAF
KGPT 170520Z 1706/1806 VRB03KT P6SM FEW035
     FM171300 28004KT P6SM SCT045
     FM171800 22005KT P6SM FEW050=

USA.gov is the U.S. government's official web portal to all federal, state and local government web resources and services.